Platteville, Colorado
Current Conditions -  °F | °C
As of 8:55 AM on Saturday 20 Dec 2014 (Local Time) from KGXY Reporting Station
Few Clouds Few Clouds  
Wind Chill: 25°   Ceiling: Unl
Heat Index: 25°   Visibility: 10mi
Dew Point: 14°   Wind: 0mph
Humidity: 64%   Direction: NA
Pressure: 30.02"   Gusts: NA
Location:  40.21°N, 104.82°W
Report Text: KGXY 201555Z AUTO 00000KT 10SM FEW110 M04/M10 A3002 RMK AO1
Loading
Personal Weather Stations






























Interactive Weather Map New forecast layout! Learn more

10-Day Weather Forecast

Advertisements
Track Severe Weather on mobile